Time;durP1;ratioP1;P1;durP2;ratioP2;P2;SDS_P1;SDS_P2;PMS_P1;PMS_P2;Temp;Humidity;BMP_temperature;BMP_pressure;BME280_temperature;BME280_humidity;BME280_pressure;Samples;Min_cycle;Max_cycle;Signal;HPM_P1;HPM_P2
2024/03/18 07:48:49;;;;;;;6.90;2.40;;;;;;;6.98;100.00;100475.20;106497;1257;73127;-78
2024/03/18 07:51:23;;;;;;;9.20;3.00;;;;;;;6.92;100.00;100472.63;106474;1254;62420;-78
2024/03/18 07:54:03;;;;;;;5.70;2.90;;;;;;;6.85;100.00;100472.99;107972;1254;61957;-82
2024/03/18 07:56:43;;;;;;;9.80;3.60;;;;;;;6.81;100.00;100472.06;106536;1254;76940;-83
2024/03/18 07:59:17;;;;;;;7.20;3.00;;;;;;;6.75;100.00;100469.05;106713;1254;69837;-82
2024/03/18 08:01:51;;;;;;;6.10;2.70;;;;;;;6.70;100.00;100467.38;106307;1256;73539;-82
2024/03/18 08:04:30;;;;;;;11.00;4.20;;;;;;;6.70;100.00;100469.92;105977;1254;62785;-82
2024/03/18 08:07:10;;;;;;;9.60;4.00;;;;;;;6.73;100.00;100468.17;105868;1256;62107;-77
2024/03/18 08:09:38;;;;;;;9.30;3.10;;;;;;;6.76;100.00;100468.70;106778;1254;76054;-83
2024/03/18 08:12:18;;;;;;;10.30;3.00;;;;;;;6.79;100.00;100472.10;106432;1254;69512;-82
2024/03/18 08:14:58;;;;;;;9.40;3.70;;;;;;;6.77;100.00;100468.83;106283;1256;74766;-83
2024/03/18 08:17:32;;;;;;;15.60;4.70;;;;;;;6.76;100.00;100465.71;106025;1254;62105;-83
2024/03/18 08:20:13;;;;;;;9.30;3.20;;;;;;;6.78;100.00;100461.98;106172;1255;62328;-83
2024/03/18 08:22:52;;;;;;;8.30;3.00;;;;;;;6.80;100.00;100457.17;106278;1254;75991;-78
2024/03/18 08:25:33;;;;;;;12.30;3.40;;;;;;;6.77;100.00;100455.73;106068;1254;70890;-78
2024/03/18 08:28:13;;;;;;;8.00;3.40;;;;;;;6.77;100.00;100452.90;106383;1257;73598;-78
2024/03/18 08:30:55;;;;;;;10.50;4.50;;;;;;;6.80;100.00;100452.94;106723;1257;63132;-78
2024/03/18 08:33:35;;;;;;;10.60;3.10;;;;;;;6.81;100.00;100454.30;106913;1254;61931;-78
2024/03/18 08:36:34;;;;;;;6.40;2.80;;;;;;;6.86;100.00;100448.88;106573;1253;77895;-78
2024/03/18 08:39:14;;;;;;;10.90;3.50;;;;;;;6.83;100.00;100448.79;106493;1252;70251;-78
2024/03/18 08:41:54;;;;;;;8.10;3.10;;;;;;;6.81;100.00;100444.85;107820;1255;73839;-78
2024/03/18 08:44:38;;;;;;;8.40;3.40;;;;;;;6.80;100.00;100442.30;106551;1254;63665;-78
2024/03/18 08:47:18;;;;;;;10.10;3.00;;;;;;;6.81;100.00;100440.08;106728;1256;62088;-78
2024/03/18 08:49:58;;;;;;;7.00;3.20;;;;;;;6.81;100.00;100436.70;106691;1253;77444;-78
2024/03/18 08:52:39;;;;;;;9.80;3.40;;;;;;;6.84;100.00;100438.53;106548;1254;69456;-79
2024/03/18 08:55:19;;;;;;;11.30;4.20;;;;;;;6.86;100.00;100436.44;107328;1254;73247;-78
2024/03/18 08:57:59;;;;;;;13.60;4.20;;;;;;;6.88;100.00;100431.02;106619;1256;61485;-78
2024/03/18 09:00:39;;;;;;;8.50;3.40;;;;;;;6.86;100.00;100429.70;106681;1254;62284;-83
2024/03/18 09:03:19;;;;;;;10.30;3.40;;;;;;;6.85;100.00;100427.31;106556;1254;77565;-83
2024/03/18 09:05:58;;;;;;;15.50;4.10;;;;;;;6.86;100.00;100427.27;106695;1254;69265;-84
2024/03/18 09:08:38;;;;;;;13.10;4.80;;;;;;;6.91;100.00;100422.09;106526;1254;74750;-84
2024/03/18 09:11:18;;;;;;;12.00;5.00;;;;;;;6.91;100.00;100421.44;106659;1254;62649;-83
2024/03/18 09:13:58;;;;;;;11.30;4.30;;;;;;;6.92;100.00;100419.45;107086;1254;62140;-82
2024/03/18 09:16:40;;;;;;;14.70;5.50;;;;;;;6.99;100.00;100415.66;106499;1254;75501;-83
2024/03/18 09:19:20;;;;;;;12.50;4.60;;;;;;;7.05;100.00;100415.70;106788;1254;70083;-83
2024/03/18 09:22:00;;;;;;;9.50;3.50;;;;;;;7.08;100.00;100414.27;106554;1256;72870;-83
2024/03/18 09:24:41;;;;;;;9.50;4.10;;;;;;;7.07;100.00;100413.29;106636;1253;62082;-83
2024/03/18 09:27:21;;;;;;;9.30;3.80;;;;;;;7.09;100.00;100411.52;106647;1254;62685;-84
2024/03/18 09:30:00;;;;;;;15.50;4.80;;;;;;;7.14;100.00;100408.56;107154;1254;75356;-83
2024/03/18 09:32:40;;;;;;;13.30;6.60;;;;;;;7.18;100.00;100410.19;106050;1257;70237;-82
2024/03/18 09:35:22;;;;;;;19.00;8.90;;;;;;;7.18;100.00;100408.06;106770;1254;73733;-83
2024/03/18 09:38:02;;;;;;;27.80;11.90;;;;;;;7.19;100.00;100408.34;106577;1254;62600;-83
2024/03/18 09:40:42;;;;;;;14.50;5.70;;;;;;;7.17;100.00;100406.16;106515;1253;62771;-83
2024/03/18 09:43:16;;;;;;;16.20;6.10;;;;;;;7.11;100.00;100403.87;107207;1254;75529;-83
2024/03/18 09:45:57;;;;;;;10.80;3.40;;;;;;;7.09;100.00;100401.95;106746;1254;69711;-83
2024/03/18 09:48:31;;;;;;;24.40;11.90;;;;;;;7.12;100.00;100398.11;106694;1257;74964;-77
2024/03/18 09:51:05;;;;;;;15.50;6.50;;;;;;;7.13;100.00;100400.14;106454;1254;63016;-78
2024/03/18 09:53:46;;;;;;;27.80;12.60;;;;;;;7.15;100.00;100394.56;106718;1253;62057;-83
2024/03/18 09:56:26;;;;;;;26.00;11.50;;;;;;;7.16;100.00;100395.16;106509;1254;77216;-83
2024/03/18 09:59:05;;;;;;;16.90;5.80;;;;;;;7.15;100.00;100390.38;107167;1256;69657;-83
2024/03/18 10:01:45;;;;;;;13.30;5.10;;;;;;;7.09;100.00;100394.94;106515;1253;73833;-83
2024/03/18 10:04:25;;;;;;;13.80;5.40;;;;;;;7.05;100.00;100393.00;106853;1256;63950;-83
2024/03/18 10:07:05;;;;;;;12.40;5.20;;;;;;;7.03;100.00;100390.96;106640;1254;61950;-83
2024/03/18 10:09:52;;;;;;;12.30;5.40;;;;;;;7.02;100.00;100385.41;106604;1254;77798;-83
2024/03/18 10:12:26;;;;;;;15.80;6.40;;;;;;;7.06;100.00;100385.08;106625;1253;70497;-83
2024/03/18 10:15:08;;;;;;;12.10;5.80;;;;;;;7.12;100.00;100379.05;106696;1254;75138;-78
2024/03/18 10:17:48;;;;;;;11.10;4.00;;;;;;;7.18;100.00;100378.88;107229;1252;62832;-77
2024/03/18 10:20:20;;;;;;;12.50;5.10;;;;;;;7.21;100.00;100377.64;106568;1252;62114;-77
2024/03/18 10:23:00;;;;;;;11.40;4.80;;;;;;;7.31;100.00;100370.89;106714;1254;77446;-78
2024/03/18 10:25:40;;;;;;;11.60;4.50;;;;;;;7.29;100.00;100375.48;106808;1253;71980;-83
2024/03/18 10:28:19;;;;;;;25.10;12.30;;;;;;;7.31;100.00;100379.05;106533;1253;74573;-78
2024/03/18 10:31:01;;;;;;;25.60;9.40;;;;;;;7.32;100.00;100378.94;106575;1260;62238;-77
2024/03/18 10:33:41;;;;;;;22.60;9.30;;;;;;;7.27;100.00;100378.36;106298;1254;62115;-77
2024/03/18 10:36:30;;;;;;;15.60;6.40;;;;;;;7.28;100.00;100382.61;106865;1253;78591;-79
2024/03/18 10:39:21;;;;;;;11.50;4.80;;;;;;;7.38;100.00;100378.66;106664;1252;71483;-77
2024/03/18 10:42:01;;;;;;;23.70;9.80;;;;;;;7.33;100.00;100379.88;106564;1253;74738;-77
2024/03/18 10:44:42;;;;;;;15.40;7.10;;;;;;;7.27;100.00;100375.48;106791;1258;62832;-78
2024/03/18 10:47:22;;;;;;;11.40;4.80;;;;;;;7.23;100.00;100367.77;106934;1254;62129;-77
2024/03/18 10:50:02;;;;;;;22.30;10.10;;;;;;;7.21;100.00;100363.90;106554;1254;76196;-77
2024/03/18 10:52:42;;;;;;;20.10;8.70;;;;;;;7.23;100.00;100362.35;106606;1254;70289;-77
2024/03/18 10:55:26;;;;;;;14.80;7.90;;;;;;;7.20;100.00;100364.60;106471;1252;73712;-81
2024/03/18 10:58:07;;;;;;;10.00;4.60;;;;;;;7.25;100.00;100362.36;107354;1253;62054;-79
2024/03/18 11:00:48;;;;;;;17.00;6.00;;;;;;;7.25;100.00;100358.62;106474;1255;62234;-82
2024/03/18 11:03:29;;;;;;;12.50;5.70;;;;;;;7.27;100.00;100352.48;106657;1253;76874;-82
2024/03/18 11:06:09;;;;;;;13.20;6.20;;;;;;;7.26;100.00;100348.45;106569;1254;70009;-82
2024/03/18 11:08:50;;;;;;;15.90;6.60;;;;;;;7.27;100.00;100344.92;106691;1254;73173;-77
2024/03/18 11:11:30;;;;;;;14.80;5.70;;;;;;;7.33;100.00;100338.34;106619;1254;64033;-82
2024/03/18 11:14:12;;;;;;;11.50;5.50;;;;;;;7.37;100.00;100334.61;106660;1254;62048;-78
2024/03/18 11:16:52;;;;;;;14.80;7.00;;;;;;;7.38;100.00;100330.42;107829;1254;77729;-78
2024/03/18 11:19:33;;;;;;;11.60;5.60;;;;;;;7.45;100.00;100325.86;108201;1254;70417;-78
2024/03/18 11:22:09;;;;;;;10.60;4.90;;;;;;;7.54;100.00;100325.10;106700;1253;75077;-82
2024/03/18 11:24:49;;;;;;;12.00;5.00;;;;;;;7.63;100.00;100320.48;106721;1254;62420;-82
2024/03/18 11:27:29;;;;;;;8.50;4.20;;;;;;;7.74;100.00;100316.70;106462;1252;62110;-79
2024/03/18 11:30:09;;;;;;;9.60;5.20;;;;;;;7.82;100.00;100309.71;106585;1252;77587;-82
2024/03/18 11:33:00;;;;;;;10.80;4.90;;;;;;;7.86;100.00;100307.29;106658;1256;69024;-83
2024/03/18 11:35:44;;;;;;;11.50;5.00;;;;;;;7.82;100.00;100304.77;107094;1252;74115;-78
2024/03/18 11:38:19;;;;;;;8.30;4.60;;;;;;;7.82;100.00;100297.52;106787;1253;63787;-78
2024/03/18 11:40:59;;;;;;;7.70;3.70;;;;;;;7.83;100.00;100299.54;106626;1252;62092;-78
2024/03/18 11:43:39;;;;;;;6.50;3.40;;;;;;;7.87;100.00;100297.77;106435;1260;77859;-82
2024/03/18 19:48:16;;;;;;;20.60;12.40;;;;;;;4.09;100.00;100252.56;106664;1252;62377;-85
2024/03/18 19:50:58;;;;;;;15.70;10.60;;;;;;;4.08;100.00;100263.86;106436;1256;77919;-84
2024/03/18 19:53:38;;;;;;;19.40;11.10;;;;;;;4.08;100.00;100271.82;106943;1252;70959;-84
2024/03/18 19:56:18;;;;;;;19.80;12.10;;;;;;;4.09;100.00;100276.69;106987;1253;75193;-85
2024/03/18 19:58:58;;;;;;;23.10;14.20;;;;;;;4.05;100.00;100283.27;106492;1257;62174;-77
2024/03/18 20:01:37;;;;;;;21.80;12.90;;;;;;;4.05;100.00;100289.59;106754;1257;61980;-77
2024/03/18 20:04:17;;;;;;;24.70;14.10;;;;;;;4.08;100.00;100288.08;106522;1252;77739;-84
2024/03/18 20:06:59;;;;;;;19.40;12.60;;;;;;;4.12;100.00;100283.50;106594;1254;70871;-85
2024/03/18 20:09:39;;;;;;;21.00;13.40;;;;;;;4.13;100.00;100278.65;106623;1254;73936;-85
2024/03/18 20:12:18;;;;;;;15.30;10.30;;;;;;;4.06;100.00;100274.04;106704;1256;62078;-85
2024/03/18 20:14:59;;;;;;;19.50;12.00;;;;;;;4.07;100.00;100271.83;106408;1252;62060;-85
2024/03/18 20:17:39;;;;;;;11.40;8.60;;;;;;;4.08;100.00;100271.10;107067;1256;76866;-77
2024/03/18 20:20:19;;;;;;;13.80;9.60;;;;;;;3.99;100.00;100267.25;106268;1254;71057;-85
2024/03/18 20:22:59;;;;;;;15.20;11.20;;;;;;;3.99;100.00;100256.23;106179;1254;74116;-84
2024/03/18 20:25:39;;;;;;;15.50;9.90;;;;;;;4.10;100.00;100257.78;105929;1254;63205;-77
2024/03/18 20:28:19;;;;;;;15.20;10.70;;;;;;;4.10;100.00;100256.91;106069;1256;63265;-83
2024/03/18 20:30:59;;;;;;;17.90;11.50;;;;;;;4.10;100.00;100262.12;106165;1254;76498;-77
2024/03/18 20:33:41;;;;;;;16.00;10.50;;;;;;;4.10;100.00;100269.02;106313;1253;70580;-84
2024/03/18 20:36:21;;;;;;;19.00;11.90;;;;;;;4.05;100.00;100272.83;106142;1254;74908;-76
2024/03/18 20:39:10;;;;;;;16.50;10.70;;;;;;;4.06;100.00;100276.89;106445;1253;64136;-77
2024/03/18 20:41:50;;;;;;;13.10;9.90;;;;;;;4.04;100.00;100276.80;106281;1256;62162;-84
2024/03/18 20:44:30;;;;;;;19.80;12.90;;;;;;;4.04;100.00;100281.34;106314;1254;76122;-84
2024/03/18 20:47:13;;;;;;;15.40;10.30;;;;;;;4.08;100.00;100282.67;106070;1256;69915;-77
2024/03/18 20:49:54;;;;;;;20.50;12.80;;;;;;;4.07;100.00;100284.27;106817;1254;74621;-76
2024/03/18 20:52:34;;;;;;;19.20;11.60;;;;;;;4.07;100.00;100289.35;106324;1254;62899;-84
2024/03/18 20:55:15;;;;;;;18.80;12.20;;;;;;;4.07;100.00;100290.27;106473;1256;61155;-78
2024/03/18 20:57:54;;;;;;;15.80;9.80;;;;;;;4.06;100.00;100293.95;106205;1254;76161;-77
2024/03/18 21:00:35;;;;;;;25.30;15.10;;;;;;;4.13;100.00;100292.13;106211;1257;71398;-84
2024/03/18 21:03:15;;;;;;;18.40;13.10;;;;;;;4.15;100.00;100293.88;106216;1256;73359;-85
2024/03/18 21:05:55;;;;;;;22.40;13.80;;;;;;;4.12;100.00;100292.48;106127;1256;62215;-77
2024/03/18 21:08:35;;;;;;;25.90;13.00;;;;;;;4.14;100.00;100294.09;106187;1254;62156;-85
2024/03/18 21:11:08;;;;;;;15.50;10.10;;;;;;;4.14;100.00;100295.82;106619;1255;76259;-77
2024/03/18 21:13:42;;;;;;;22.30;14.10;;;;;;;4.15;100.00;100291.13;106078;1257;70645;-77
2024/03/18 21:16:16;;;;;;;14.90;9.60;;;;;;;4.16;100.00;100292.77;105842;1260;73245;-84
2024/03/18 21:18:56;;;;;;;14.90;10.50;;;;;;;4.18;100.00;100286.00;105904;1257;62159;-84
2024/03/18 21:21:31;;;;;;;19.30;11.60;;;;;;;4.17;100.00;100287.59;106055;1253;62415;-77
2024/03/18 21:24:10;;;;;;;14.30;10.20;;;;;;;4.19;100.00;100286.98;106120;1256;75407;-77
2024/03/18 21:26:43;;;;;;;18.40;11.30;;;;;;;4.19;100.00;100288.99;106637;1255;70129;-77
2024/03/18 21:29:17;;;;;;;11.50;8.30;;;;;;;4.21;100.00;100285.20;106598;1254;73582;-77
2024/03/18 21:31:51;;;;;;;11.80;8.30;;;;;;;4.23;100.00;100286.64;106652;1256;62024;-77
2024/03/18 21:34:25;;;;;;;9.70;7.10;;;;;;;4.20;100.00;100285.65;106460;1256;62050;-84
2024/03/18 21:36:59;;;;;;;8.10;6.90;;;;;;;4.19;100.00;100286.17;106443;1254;74454;-77
2024/03/18 21:39:33;;;;;;;12.60;8.70;;;;;;;4.18;100.00;100284.71;107558;1253;70625;-78
2024/03/18 21:42:07;;;;;;;13.30;8.80;;;;;;;4.17;100.00;100286.14;106693;1256;71506;-84
2024/03/18 21:44:41;;;;;;;11.70;8.20;;;;;;;4.13;100.00;100285.96;106115;1254;62439;-76
2024/03/18 21:47:15;;;;;;;11.20;8.30;;;;;;;4.15;100.00;100291.95;106077;1256;62145;-76
2024/03/18 21:49:49;;;;;;;12.40;8.40;;;;;;;4.16;100.00;100290.62;105992;1254;76461;-84
2024/03/18 21:52:22;;;;;;;11.60;8.10;;;;;;;4.18;100.00;100294.65;105880;1256;67140;-76
2024/03/18 21:54:56;;;;;;;14.30;8.20;;;;;;;4.17;100.00;100295.71;105957;1254;72459;-76
2024/03/18 21:57:30;;;;;;;11.20;8.20;;;;;;;4.13;100.00;100295.16;105986;1255;62137;-84
2024/03/18 22:00:06;;;;;;;15.90;9.60;;;;;;;4.10;100.00;100291.73;105838;1257;62037;-77
2024/03/18 22:02:40;;;;;;;13.30;8.00;;;;;;;4.14;100.00;100298.47;107128;1252;75413;-84
2024/03/18 22:05:14;;;;;;;14.00;8.50;;;;;;;4.14;100.00;100301.89;106173;1254;68702;-76
2024/03/18 22:07:48;;;;;;;14.30;9.00;;;;;;;4.14;100.00;100311.17;106048;1257;72914;-84
2024/03/18 22:10:22;;;;;;;11.60;7.60;;;;;;;4.19;100.00;100312.76;106052;1253;62197;-76
2024/03/18 22:12:55;;;;;;;15.40;9.30;;;;;;;4.25;100.00;100311.10;106183;1254;62082;-85
2024/03/18 22:15:24;;;;;;;16.10;9.70;;;;;;;4.26;100.00;100316.51;106113;1257;75461;-85
2024/03/18 22:17:57;;;;;;;17.50;10.50;;;;;;;4.31;100.00;100316.83;106143;1257;68602;-76
2024/03/18 22:20:27;;;;;;;17.10;10.00;;;;;;;4.35;100.00;100315.30;105896;1254;70433;-77
2024/03/18 22:23:01;;;;;;;19.90;11.60;;;;;;;4.36;100.00;100315.12;106040;1253;62104;-77
2024/03/18 22:25:35;;;;;;;18.10;11.10;;;;;;;4.37;100.00;100314.80;105880;1254;61977;-84
2024/03/18 22:28:03;;;;;;;20.10;12.60;;;;;;;4.37;100.00;100313.56;105985;1256;75416;-77
2024/03/18 22:30:37;;;;;;;28.30;13.70;;;;;;;4.38;100.00;100311.10;106734;1256;68705;-85
2024/03/18 22:33:12;;;;;;;17.20;10.80;;;;;;;4.42;100.00;100313.98;106663;1255;72670;-77
2024/03/18 22:35:46;;;;;;;20.10;12.40;;;;;;;4.42;100.00;100320.81;106064;1254;62104;-85
2024/03/18 22:38:20;;;;;;;18.00;11.00;;;;;;;4.41;100.00;100321.12;106081;1253;61963;-77
2024/03/18 22:40:53;;;;;;;18.50;10.40;;;;;;;4.34;100.00;100317.30;106121;1257;74731;-77
2024/03/18 22:43:27;;;;;;;16.80;10.00;;;;;;;4.38;100.00;100319.39;105880;1254;68389;-77
2024/03/18 22:46:01;;;;;;;17.90;11.40;;;;;;;4.37;100.00;100319.05;105891;1254;73109;-85
2024/03/18 22:48:34;;;;;;;13.80;9.00;;;;;;;4.37;100.00;100314.98;105857;1259;62228;-83
2024/03/18 22:51:08;;;;;;;17.50;10.50;;;;;;;4.36;100.00;100314.63;105948;1254;62002;-77
2024/03/18 22:53:44;;;;;;;15.90;10.00;;;;;;;4.36;100.00;100312.41;106831;1254;75893;-77
2024/03/18 22:56:21;;;;;;;14.90;8.90;;;;;;;4.38;100.00;100310.50;106050;1260;67636;-84
2024/03/18 22:58:55;;;;;;;13.70;8.00;;;;;;;4.39;100.00;100309.05;106436;1257;71923;-77
2024/03/18 23:01:29;;;;;;;12.60;7.90;;;;;;;4.41;100.00;100303.52;106696;1252;62083;-77
2024/03/18 23:04:02;;;;;;;10.20;6.60;;;;;;;4.40;100.00;100306.16;106446;1260;62405;-84
2024/03/18 23:06:37;;;;;;;7.80;5.50;;;;;;;4.39;100.00;100306.85;106543;1257;75403;-78
2024/03/18 23:09:11;;;;;;;10.10;6.10;;;;;;;4.35;100.00;100305.63;106387;1254;67567;-77
2024/03/18 23:11:44;;;;;;;8.50;5.50;;;;;;;4.36;100.00;100308.20;106998;1254;73298;-77
2024/03/18 23:14:18;;;;;;;7.90;5.30;;;;;;;4.31;100.00;100308.97;108796;1254;62164;-84
2024/03/18 23:16:52;;;;;;;11.70;5.80;;;;;;;4.24;100.00;100304.04;106613;1257;61963;-78
2024/03/18 23:19:25;;;;;;;4.60;4.00;;;;;;;4.28;100.00;100307.27;106699;1254;74159;-77
2024/03/18 23:21:59;;;;;;;6.30;4.50;;;;;;;4.32;100.00;100306.45;106483;1261;68471;-77
2024/03/18 23:24:33;;;;;;;5.60;4.10;;;;;;;4.25;100.00;100308.31;106361;1266;71448;-84
2024/03/18 23:27:08;;;;;;;8.80;5.20;;;;;;;4.24;100.00;100312.20;106506;1257;62056;-78
2024/03/18 23:29:42;;;;;;;7.20;4.40;;;;;;;4.23;100.00;100310.51;106698;1254;62412;-85
2024/03/18 23:32:15;;;;;;;7.20;4.60;;;;;;;4.19;100.00;100305.62;106257;1257;74650;-85
2024/03/18 23:34:49;;;;;;;6.40;4.10;;;;;;;4.20;100.00;100311.14;106345;1256;67570;-84
2024/03/18 23:37:23;;;;;;;7.40;4.60;;;;;;;4.17;100.00;100309.19;107327;1259;72689;-84
2024/03/18 23:39:56;;;;;;;6.60;4.80;;;;;;;4.12;100.00;100318.02;107933;1256;62121;-78
2024/03/18 23:42:31;;;;;;;6.00;3.60;;;;;;;4.08;100.00;100316.91;106651;1254;62165;-84
2024/03/18 23:45:06;;;;;;;4.70;3.30;;;;;;;4.08;100.00;100316.79;106328;1253;74170;-77
2024/03/18 23:47:43;;;;;;;5.50;4.30;;;;;;;4.03;100.00;100316.59;106679;1256;67078;-78
2024/03/18 23:50:23;;;;;;;3.20;2.90;;;;;;;4.05;100.00;100316.09;106549;1254;72300;-84
2024/03/18 23:53:03;;;;;;;4.20;3.00;;;;;;;4.03;100.00;100317.63;106550;1257;62087;-85
2024/03/18 23:55:43;;;;;;;5.30;3.40;;;;;;;3.95;100.00;100322.58;107601;1253;62021;-77
2024/03/18 23:58:23;;;;;;;4.30;3.00;;;;;;;3.95;100.00;100323.30;106535;1257;74191;-77
